Terminal Aerodrome Forecast
Issued by NWS

Home | Current Version | Previous Version | Text Only | Print | Product List | Glossary On
Versions: 1 2 3 4 5 6 7 8 9 10 11 12 13 14 15 16
000
FTUS46 KPDT 261724
TAFDLS
TAF
KDLS 261724Z 2618/2718 VRB05KT P6SM -SHRA SCT030 OVC045
      TEMPO 2621/2624 5SM -RA BR SCT020 OVC035
     FM270300 30004KT P6SM VCSH SCT040 OVC060
     FM271200 30004KT P6SM VCSH SCT020 BKN080=

USA.gov is the U.S. government's official web portal to all federal, state and local government web resources and services.